This is the latest recevied weather packets stored in our database for station/object PY5KT-13. If no packets are shown the sender has not sent any weather packets the latest 10 day(s).
| Time | Temp. | Humidity | Pressure | Rain* | Wind** | Luminosity | Snow |
|---|---|---|---|---|---|---|---|
| 1777574331 | 22.22° C | 68% | 1019.1 hPa | 0 mm | - | 312 W/m² | - |
| 1777574029 | 22.22° C | 69% | 1019.1 hPa | 0 mm | - | 324 W/m² | - |
| 1777573728 | 22.78° C | 65% | 1019.1 hPa | 0 mm | - | 341 W/m² | - |
| 1777573427 | 22.22° C | 67% | 1019 hPa | 0 mm | - | 355 W/m² | - |
| 1777573124 | 21.67° C | 71% | 1019 hPa | 0 mm | - | 387 W/m² | - |
| 1777572823 | 22.22° C | 68% | 1019 hPa | 0 mm | - | 391 W/m² | - |
| 1777572521 | 21.67° C | 69% | 1019.1 hPa | 0 mm | - | 391 W/m² | - |
| 1777572219 | 20.56° C | 77% | 1019.1 hPa | 0 mm | - | 387 W/m² | - |
| 1777571917 | 19.44° C | 80% | 1019.2 hPa | 0 mm | - | 275 W/m² | - |
| 1777571615 | 20° C | 80% | 1019.1 hPa | 0 mm | - | 140 W/m² | - |
| 1777571313 | 18.89° C | 81% | 1019.2 hPa | 0 mm | - | 98 W/m² | - |
| 1777571012 | 18.89° C | 81% | 1019.3 hPa | 0 mm | - | 78 W/m² | - |
| 1777570710 | 18.89° C | 81% | 1019.3 hPa | 0 mm | - | 78 W/m² | - |
| 1777570408 | 18.89° C | 80% | 1019.2 hPa | 0 mm | - | 77 W/m² | - |
| 1777570106 | 19.44° C | 80% | 1019.2 hPa | 0 mm | - | 75 W/m² | - |
| 1777569805 | 19.44° C | 79% | 1019.3 hPa | 0 mm | - | 76 W/m² | - |
| 1777569503 | 20° C | 78% | 1019.3 hPa | 0 mm | - | 76 W/m² | - |
| 1777569201 | 19.44° C | 78% | 1019.3 hPa | 0 mm | - | 82 W/m² | - |
| 1777568899 | 19.44° C | 78% | 1019.4 hPa | 0 mm | - | 73 W/m² | - |
| 1777568597 | 20° C | 78% | 1019.4 hPa | 0 mm | - | 73 W/m² | - |
| 1777568295 | 19.44° C | 77% | 1019.3 hPa | 0 mm | - | 72 W/m² | - |
| 1777567993 | 19.44° C | 75% | 1019.3 hPa | 0 mm | - | 74 W/m² | - |
| 1777567389 | 19.44° C | 75% | 1019.5 hPa | 0 mm | - | 94 W/m² | - |
| 1777567086 | 20° C | 75% | 1019.5 hPa | 0 mm | - | 90 W/m² | - |
| 1777566785 | 19.44° C | 76% | 1019.5 hPa | 0 mm | - | 71 W/m² | - |
* Rain latest hour (hover to see other rain measurements)
** Current wind speed in m/s (hover to see current wind gust speed)